Time;durP1;ratioP1;P1;durP2;ratioP2;P2;SDS_P1;SDS_P2;PMS_P1;PMS_P2;Temp;Humidity;BMP_temperature;BMP_pressure;BME280_temperature;BME280_humidity;BME280_pressure;Samples;Min_cycle;Max_cycle;Signal;HPM_P1;HPM_P2
2021/05/06 00:04:43;;;;;;;4.55;1.70;;;5.90;99.90;;;;;;6044314;23;20022;-83
2021/05/06 00:10:30;;;;;;;5.65;1.85;;;5.90;99.90;;;;;;6043622;23;20018;-82
2021/05/06 00:30:00;;;;;;;5.85;1.73;;;5.70;99.90;;;;;;6045913;23;20010;-83
2021/05/06 00:32:35;;;;;;;3.13;1.33;;;5.60;99.90;;;;;;6047678;23;20050;-84
2021/05/06 00:35:03;;;;;;;6.32;2.40;;;5.60;99.90;;;;;;6065480;23;20014;-81
2021/05/06 00:37:33;;;;;;;4.17;1.47;;;5.70;99.90;;;;;;6065787;23;20002;-83
2021/05/06 00:40:04;;;;;;;4.47;1.67;;;5.70;99.90;;;;;;6097330;23;20264;-84
2021/05/06 00:56:52;;;;;;;4.88;1.65;;;5.80;99.90;;;;;;5964242;24;20019;-85
2021/05/06 01:04:58;;;;;;;5.53;2.20;;;5.60;99.90;;;;;;6072791;23;20010;-85
2021/05/06 01:07:42;;;;;;;5.28;1.60;;;5.60;99.90;;;;;;6048758;23;20017;-85
2021/05/06 01:10:36;;;;;;;5.22;1.67;;;5.60;99.90;;;;;;6073261;23;20326;-85
2021/05/06 01:13:05;;;;;;;7.82;2.25;;;5.60;99.90;;;;;;6049352;23;20013;-84
2021/05/06 01:15:35;;;;;;;4.68;2.17;;;5.60;99.90;;;;;;6050205;23;20003;-85
2021/05/06 01:18:04;;;;;;;8.23;2.20;;;5.50;99.90;;;;;;6073208;23;20007;-82
2021/05/06 01:20:31;;;;;;;2.50;1.45;;;5.60;99.90;;;;;;6044914;23;20029;-84
2021/05/06 01:23:01;;;;;;;4.25;2.00;;;5.60;99.90;;;;;;6071978;23;20002;-84
2021/05/06 01:25:29;;;;;;;5.30;1.60;;;5.60;99.90;;;;;;6050158;23;20010;-85
2021/05/06 01:28:01;;;;;;;3.30;1.55;;;5.50;99.90;;;;;;6074173;23;20027;-84
2021/05/06 01:30:34;;;;;;;4.07;2.00;;;5.60;99.90;;;;;;6074527;23;20015;-86
2021/05/06 01:33:10;;;;;;;3.53;1.80;;;5.50;99.90;;;;;;6073862;23;20007;-85
2021/05/06 01:35:46;;;;;;;5.35;1.95;;;5.60;99.90;;;;;;6075009;23;20022;-85
2021/05/06 01:38:38;;;;;;;5.55;2.03;;;5.60;99.90;;;;;;6097203;23;20011;-84
2021/05/06 01:44:09;;;;;;;5.63;2.20;;;5.50;99.90;;;;;;6049997;23;20006;-85
2021/05/06 01:46:54;;;;;;;6.80;2.13;;;5.50;99.90;;;;;;6075274;23;20010;-85
2021/05/06 01:58:38;;;;;;;6.28;2.88;;;5.40;99.90;;;;;;6022778;23;20108;-85
2021/05/06 02:01:08;;;;;;;7.65;2.30;;;5.50;99.90;;;;;;6044663;23;20011;-84
2021/05/06 02:03:37;;;;;;;6.63;2.50;;;5.40;99.90;;;;;;6078201;23;19994;-86
2021/05/06 02:06:06;;;;;;;6.88;2.60;;;5.40;99.90;;;;;;6083978;23;20006;-83
2021/05/06 02:08:34;;;;;;;4.85;2.33;;;5.40;99.90;;;;;;6129222;23;20006;-83
2021/05/06 02:11:13;;;;;;;4.38;2.17;;;5.40;99.90;;;;;;6128733;23;20010;-85
2021/05/06 02:14:12;;;;;;;4.03;1.98;;;5.40;99.90;;;;;;6125634;23;20016;-85
2021/05/06 02:16:48;;;;;;;5.88;2.28;;;5.40;99.90;;;;;;6109602;23;20020;-85
2021/05/06 02:19:25;;;;;;;9.17;2.60;;;5.40;99.90;;;;;;6109553;23;20006;-85
2021/05/06 02:21:53;;;;;;;5.88;2.60;;;5.40;99.90;;;;;;6108649;23;20028;-84
2021/05/06 02:24:21;;;;;;;6.10;2.50;;;5.40;99.90;;;;;;6108915;23;20009;-85
2021/05/06 02:26:50;;;;;;;6.65;2.60;;;5.40;99.90;;;;;;6109265;23;20018;-85
2021/05/06 02:29:18;;;;;;;5.78;2.55;;;5.30;99.90;;;;;;6132530;23;20001;-85
2021/05/06 02:34:36;;;;;;;9.68;2.83;;;5.30;99.90;;;;;;6088292;23;19909;-84
2021/05/06 02:37:05;;;;;;;6.20;3.30;;;5.30;99.90;;;;;;6071767;23;20066;-83
2021/05/06 02:39:33;;;;;;;4.10;2.47;;;5.30;99.90;;;;;;6109120;23;20014;-82
2021/05/06 02:42:02;;;;;;;5.03;3.08;;;5.30;99.90;;;;;;6106778;23;20256;-84
2021/05/06 02:44:36;;;;;;;5.50;2.50;;;5.20;99.90;;;;;;6110901;23;20010;-85
2021/05/06 02:50:13;;;;;;;8.02;2.80;;;5.20;99.90;;;;;;6042719;23;20019;-84
2021/05/06 02:52:47;;;;;;;8.00;3.30;;;5.20;99.90;;;;;;6016848;23;20252;-83
2021/05/06 02:55:23;;;;;;;5.25;2.38;;;5.20;99.90;;;;;;5995369;23;20023;-85
2021/05/06 02:57:55;;;;;;;5.13;2.40;;;5.20;99.90;;;;;;6041859;23;20007;-85
2021/05/06 03:03:12;;;;;;;5.65;2.40;;;5.20;99.90;;;;;;5983724;23;20016;-86
2021/05/06 03:05:41;;;;;;;5.20;2.35;;;5.20;99.90;;;;;;6019022;23;20011;-85
2021/05/06 03:08:12;;;;;;;6.50;2.70;;;5.20;99.90;;;;;;5994982;23;20003;-84
2021/05/06 03:10:53;;;;;;;4.20;2.47;;;5.20;99.90;;;;;;6017371;23;20010;-85
2021/05/06 03:24:32;;;;;;;4.22;2.10;;;5.10;99.90;;;;;;6038972;23;20022;-83
2021/05/06 03:27:03;;;;;;;8.55;2.17;;;5.10;99.90;;;;;;6040215;23;20022;-84
2021/05/06 03:29:35;;;;;;;5.47;2.28;;;5.10;99.90;;;;;;5992124;23;20010;-82
2021/05/06 03:32:23;;;;;;;3.55;1.45;;;5.10;99.90;;;;;;6015733;23;20022;-84
2021/05/06 03:35:04;;;;;;;2.47;1.55;;;5.10;99.90;;;;;;6012387;23;20023;-85
2021/05/06 03:43:16;;;;;;;5.32;1.88;;;5.00;99.90;;;;;;6037085;23;20267;-83
2021/05/06 03:49:01;;;;;;;2.77;1.57;;;5.10;99.90;;;;;;6031919;23;20012;-84
2021/05/06 04:16:46;;;;;;;5.07;2.00;;;5.10;99.90;;;;;;5939931;23;20008;-83
2021/05/06 04:21:32;;;;;;;8.07;2.23;;;5.00;99.90;;;;;;5994145;23;20011;-85
2021/05/06 04:22:24;;;;;;;6.07;2.40;;;5.00;99.90;;;;;;6017320;23;20018;-85
2021/05/06 04:27:49;;;;;;;5.67;2.23;;;4.90;99.90;;;;;;6014803;23;20020;-84
2021/05/06 04:30:41;;;;;;;4.83;1.60;;;5.00;99.90;;;;;;6037762;23;20019;-82
2021/05/06 04:36:03;;;;;;;5.40;2.28;;;5.20;99.90;;;;;;6013457;23;20019;-84
2021/05/06 04:38:31;;;;;;;4.90;2.47;;;5.20;99.90;;;;;;5990451;23;20015;-83
2021/05/06 04:41:15;;;;;;;4.60;2.55;;;5.30;99.90;;;;;;6015596;23;20014;-83
2021/05/06 04:55:26;;;;;;;1.83;0.93;;;5.60;99.90;;;;;;6012131;23;20012;-84
2021/05/06 04:58:38;;;;;;;6.20;2.70;;;5.70;99.90;;;;;;5988334;23;20027;-85
2021/05/06 05:03:58;;;;;;;5.93;2.70;;;5.70;99.90;;;;;;6010367;24;20003;-83
2021/05/06 05:06:31;;;;;;;4.75;2.70;;;5.80;99.90;;;;;;5984041;24;20020;-84
2021/05/06 05:09:09;;;;;;;6.63;1.90;;;5.80;99.90;;;;;;5987470;24;20008;-85
2021/05/06 05:11:47;;;;;;;2.85;1.70;;;5.80;99.90;;;;;;5966529;24;20015;-84
2021/05/06 05:20:06;;;;;;;3.10;1.88;;;5.90;99.90;;;;;;6009079;24;20031;-85
2021/05/06 05:25:27;;;;;;;5.20;1.92;;;5.90;99.90;;;;;;6009275;24;20023;-84
2021/05/06 05:27:56;;;;;;;5.07;2.70;;;6.00;99.90;;;;;;6031914;23;20273;-84
2021/05/06 05:30:26;;;;;;;4.63;2.47;;;6.00;99.90;;;;;;6009777;24;20023;-85
2021/05/06 05:32:54;;;;;;;10.68;2.95;;;6.00;99.90;;;;;;5984749;24;20020;-84
2021/05/06 05:35:37;;;;;;;5.10;2.15;;;6.10;99.90;;;;;;6032362;23;20023;-83
2021/05/06 05:38:13;;;;;;;3.25;1.63;;;6.30;99.90;;;;;;6009349;24;20009;-84
2021/05/06 05:41:00;;;;;;;4.22;2.10;;;6.40;99.90;;;;;;5986596;23;20023;-84
2021/05/06 05:43:43;;;;;;;5.00;2.53;;;6.40;99.90;;;;;;6033416;23;20007;-84
2021/05/06 05:54:41;;;;;;;9.75;3.35;;;6.50;99.90;;;;;;6009110;24;20016;-85
2021/05/06 05:57:10;;;;;;;5.65;1.98;;;6.60;99.90;;;;;;5963885;24;20016;-85
2021/05/06 05:59:38;;;;;;;4.18;2.10;;;6.70;99.90;;;;;;6033667;23;20012;-85
2021/05/06 06:02:10;;;;;;;6.32;2.40;;;6.80;99.90;;;;;;6010634;23;20014;-85
2021/05/06 06:04:38;;;;;;;2.00;1.25;;;6.80;99.90;;;;;;6032434;23;20023;-84
2021/05/06 06:07:06;;;;;;;4.53;2.40;;;6.80;99.90;;;;;;6010014;24;20016;-85
2021/05/06 06:09:35;;;;;;;;;;;6.70;99.90;;;;;;6035557;23;20012;-84
2021/05/06 06:12:05;;;;;;;3.42;2.08;;;6.90;99.90;;;;;;6030978;23;19926;-84
2021/05/06 06:14:41;;;;;;;6.65;2.33;;;6.90;99.90;;;;;;6010067;23;20008;-85
2021/05/06 06:17:10;;;;;;;4.43;1.98;;;7.00;99.90;;;;;;6011706;23;20015;-85
2021/05/06 06:19:40;;;;;;;3.80;1.77;;;7.10;99.90;;;;;;6010914;24;20023;-84
2021/05/06 06:22:10;;;;;;;3.15;2.00;;;7.10;99.90;;;;;;5988397;24;20020;-83
2021/05/06 06:24:41;;;;;;;4.57;1.73;;;7.20;99.90;;;;;;6036095;23;20015;-83
2021/05/06 06:27:09;;;;;;;3.95;1.83;;;7.20;99.90;;;;;;6031164;23;20012;-84
2021/05/06 06:29:38;;;;;;;4.55;2.25;;;7.30;99.90;;;;;;5987361;24;20016;-84
2021/05/06 06:32:09;;;;;;;7.05;2.63;;;7.30;99.90;;;;;;6011573;23;20016;-84
2021/05/06 06:34:38;;;;;;;2.83;1.70;;;7.40;99.90;;;;;;6036065;23;20022;-84
2021/05/06 06:37:06;;;;;;;4.35;2.05;;;7.40;99.90;;;;;;6010710;23;20022;-83
2021/05/06 06:39:38;;;;;;;3.40;2.28;;;7.20;99.90;;;;;;6007858;24;20012;-82
2021/05/06 06:42:09;;;;;;;7.00;2.42;;;7.30;99.90;;;;;;6007210;24;20008;-83
2021/05/06 06:44:38;;;;;;;4.72;1.58;;;7.40;99.90;;;;;;6006443;24;20019;-84
2021/05/06 06:47:08;;;;;;;4.97;2.45;;;7.30;99.90;;;;;;6034630;23;20036;-84
2021/05/06 06:49:38;;;;;;;4.35;2.30;;;7.30;99.90;;;;;;6035573;23;20019;-83
2021/05/06 06:52:08;;;;;;;4.45;1.80;;;7.50;99.90;;;;;;6017243;23;20012;-83
2021/05/06 06:54:36;;;;;;;3.78;1.90;;;7.60;99.90;;;;;;6018894;23;20014;-84
2021/05/06 07:00:02;;;;;;;4.95;2.30;;;8.00;99.90;;;;;;6030941;23;20006;-83
2021/05/06 07:02:30;;;;;;;7.13;2.38;;;7.90;99.90;;;;;;6092261;23;20031;-81
2021/05/06 07:04:59;;;;;;;6.82;1.90;;;8.00;99.90;;;;;;6109266;23;20013;-83
2021/05/06 07:07:29;;;;;;;3.22;1.50;;;8.30;99.90;;;;;;6109370;23;20013;-84
2021/05/06 07:34:25;;;;;;;2.97;1.58;;;9.30;99.90;;;;;;6027976;23;20006;-82
2021/05/06 07:39:43;;;;;;;9.73;2.00;;;9.20;99.90;;;;;;6027746;23;20014;-83
2021/05/06 07:42:12;;;;;;;3.58;1.50;;;9.20;99.90;;;;;;6098376;23;20034;-84
2021/05/06 07:44:40;;;;;;;5.40;1.63;;;9.00;99.90;;;;;;6125661;23;20021;-83
2021/05/06 07:47:11;;;;;;;5.05;1.40;;;9.00;99.90;;;;;;6102160;23;19998;-84
2021/05/06 07:49:46;;;;;;;1.48;0.65;;;9.10;99.90;;;;;;6103571;23;20002;-85
2021/05/06 07:52:16;;;;;;;4.72;1.40;;;9.00;98.80;;;;;;6103124;23;20021;-84
2021/05/06 07:54:44;;;;;;;3.15;1.20;;;9.20;99.20;;;;;;6124650;23;20018;-84
2021/05/06 07:57:12;;;;;;;0.77;0.45;;;9.30;99.00;;;;;;6126931;23;20022;-84
2021/05/06 08:05:34;;;;;;;2.40;1.20;;;9.20;96.20;;;;;;6134012;23;20025;-85
2021/05/06 08:08:03;;;;;;;2.20;1.05;;;9.40;95.90;;;;;;6106237;23;20026;-84
2021/05/06 08:10:33;;;;;;;2.55;0.98;;;9.40;94.80;;;;;;6016077;23;20014;-82
2021/05/06 08:13:05;;;;;;;1.67;0.47;;;9.70;94.70;;;;;;6108834;23;20006;-84
2021/05/06 08:15:33;;;;;;;3.70;1.13;;;9.60;94.70;;;;;;6157766;23;20044;-84
2021/05/06 08:18:06;;;;;;;0.85;0.40;;;9.50;95.50;;;;;;6096190;23;20022;-84
2021/05/06 08:20:34;;;;;;;4.63;1.30;;;9.40;95.00;;;;;;6103440;23;20017;-84
2021/05/06 08:23:06;;;;;;;2.25;0.75;;;9.50;95.80;;;;;;6103141;23;20014;-83
2021/05/06 08:25:35;;;;;;;2.33;1.17;;;9.40;94.10;;;;;;6126301;23;20002;-83
2021/05/06 08:28:03;;;;;;;1.33;0.63;;;9.60;93.50;;;;;;6102750;23;20014;-83
2021/05/06 08:31:00;;;;;;;2.95;1.38;;;9.70;92.80;;;;;;6103375;23;20002;-82
2021/05/06 08:33:29;;;;;;;3.78;0.90;;;9.90;92.80;;;;;;6127316;23;20010;-84
2021/05/06 08:38:46;;;;;;;1.35;0.70;;;9.80;92.60;;;;;;6155668;23;19932;-84
2021/05/06 08:41:16;;;;;;;1.70;0.68;;;9.80;92.80;;;;;;6107659;23;20001;-83
2021/05/06 08:43:51;;;;;;;2.95;0.60;;;9.80;92.70;;;;;;6105700;23;20010;-83
2021/05/06 08:46:20;;;;;;;2.03;1.00;;;9.70;92.90;;;;;;6105686;23;20014;-83
2021/05/06 08:48:52;;;;;;;1.52;0.80;;;9.80;93.00;;;;;;6126913;23;20018;-83
2021/05/06 08:51:31;;;;;;;1.88;0.85;;;9.90;92.90;;;;;;6150335;23;20017;-82
2021/05/06 08:54:02;;;;;;;0.93;0.55;;;9.90;93.00;;;;;;6098322;23;20317;-82
2021/05/06 08:56:32;;;;;;;1.17;0.38;;;10.10;91.50;;;;;;6146289;23;20013;-82
2021/05/06 09:06:26;;;;;;;2.55;1.17;;;10.60;87.90;;;;;;6095974;23;20010;-82
2021/05/06 09:12:45;;;;;;;2.88;0.90;;;11.10;85.60;;;;;;6138928;23;20018;-82
2021/05/06 09:20:30;;;;;;;4.40;0.90;;;11.10;82.00;;;;;;6114385;23;20008;-83
2021/05/06 09:28:15;;;;;;;1.40;0.68;;;10.90;78.50;;;;;;5997007;23;20031;-84
2021/05/06 09:30:53;;;;;;;4.00;0.98;;;10.60;80.20;;;;;;5986694;23;20016;-82
2021/05/06 09:33:29;;;;;;;2.47;0.90;;;10.90;79.80;;;;;;6065349;23;20026;-84
2021/05/06 09:36:11;;;;;;;5.50;0.93;;;11.10;78.00;;;;;;6103275;23;20017;-83
2021/05/06 09:38:45;;;;;;;3.30;0.80;;;11.20;75.40;;;;;;6150316;23;20025;-84
2021/05/06 09:49:02;;;;;;;1.65;0.68;;;10.80;71.10;;;;;;6027237;23;20013;-84
2021/05/06 09:51:57;;;;;;;1.23;0.47;;;10.80;71.70;;;;;;6085177;23;20011;31
2021/05/06 09:57:35;;;;;;;5.07;0.90;;;11.10;72.00;;;;;;6034729;23;20215;-82
2021/05/06 10:00:18;;;;;;;2.30;1.05;;;11.20;67.60;;;;;;6109046;23;20013;-84
2021/05/06 10:12:42;;;;;;;3.55;1.05;;;10.90;68.10;;;;;;6156141;23;20230;-84
2021/05/06 10:15:14;;;;;;;1.40;0.63;;;11.00;68.50;;;;;;6132846;23;20321;-83
2021/05/06 10:17:44;;;;;;;2.17;0.82;;;11.00;68.50;;;;;;6109260;23;20021;-85
2021/05/06 10:20:15;;;;;;;5.20;1.20;;;10.80;68.90;;;;;;6108145;23;20070;-83
2021/05/06 10:22:51;;;;;;;2.30;0.80;;;10.80;69.70;;;;;;6132508;23;20017;-84
2021/05/06 10:25:22;;;;;;;3.28;0.93;;;10.90;67.30;;;;;;6132873;23;20006;-83
2021/05/06 10:27:51;;;;;;;2.03;0.88;;;10.80;68.50;;;;;;6073510;23;20029;-82
2021/05/06 10:30:21;;;;;;;2.20;0.90;;;11.00;67.30;;;;;;6002902;23;20013;-86
2021/05/06 10:32:56;;;;;;;3.85;0.75;;;11.60;66.80;;;;;;6051679;23;20010;-83
2021/05/06 10:35:33;;;;;;;2.67;1.35;;;12.10;64.80;;;;;;6094214;23;20003;-83
2021/05/06 10:38:03;;;;;;;4.00;1.05;;;11.80;65.50;;;;;;6050539;23;20025;-84
2021/05/06 10:40:34;;;;;;;0.30;0.30;;;11.50;65.90;;;;;;6027169;23;20011;-83
2021/05/06 10:43:40;;;;;;;2.33;0.95;;;11.40;66.20;;;;;;6072134;23;20015;-83
2021/05/06 10:46:09;;;;;;;2.60;0.95;;;11.50;65.30;;;;;;6038556;23;20014;-83
2021/05/06 10:49:02;;;;;;;;;;;11.60;65.60;;;;;;6000039;23;20012;-83
2021/05/06 10:51:41;;;;;;;2.50;0.57;;;11.50;64.70;;;;;;6043984;23;19918;-82
2021/05/06 10:54:53;;;;;;;2.28;0.88;;;11.50;63.00;;;;;;6041312;23;20025;-82
2021/05/06 10:57:31;;;;;;;5.05;1.00;;;12.00;62.90;;;;;;6011988;23;20330;-81
2021/05/06 11:00:02;;;;;;;2.38;1.15;;;12.40;62.00;;;;;;6017215;23;20018;-82
2021/05/06 11:02:49;;;;;;;3.10;1.15;;;12.00;64.10;;;;;;6053393;23;20011;-82
2021/05/06 11:05:22;;;;;;;3.40;0.88;;;12.10;63.60;;;;;;6093681;23;20015;-82
2021/05/06 11:08:26;;;;;;;4.30;0.70;;;12.40;60.70;;;;;;6045959;23;20026;-82
2021/05/06 11:11:13;;;;;;;1.40;0.70;;;12.10;61.20;;;;;;6072023;23;20014;-83
2021/05/06 11:14:06;;;;;;;3.33;0.68;;;12.20;61.20;;;;;;6048610;23;20018;-83
2021/05/06 11:16:35;;;;;;;3.10;1.00;;;12.30;59.80;;;;;;6047437;23;20030;-82
2021/05/06 11:19:04;;;;;;;1.35;0.60;;;12.70;56.50;;;;;;6048284;23;20014;-81
2021/05/06 11:21:41;;;;;;;4.38;1.00;;;12.80;55.10;;;;;;6070521;23;20014;-82
2021/05/06 11:24:14;;;;;;;1.80;0.85;;;12.60;56.10;;;;;;6041297;23;20019;-82
2021/05/06 11:27:20;;;;;;;5.40;1.23;;;13.30;55.20;;;;;;6043417;23;20025;-82
2021/05/06 11:29:48;;;;;;;3.50;0.90;;;14.60;52.00;;;;;;6055747;23;20318;-86
2021/05/06 11:32:35;;;;;;;2.10;0.75;;;14.60;49.60;;;;;;6054997;23;20244;-83
2021/05/06 11:35:03;;;;;;;5.53;1.02;;;15.20;49.10;;;;;;6038689;23;20010;-84
2021/05/06 11:37:32;;;;;;;3.30;0.90;;;15.70;47.30;;;;;;6061581;23;20018;-80
2021/05/06 11:40:04;;;;;;;2.17;0.95;;;15.50;47.70;;;;;;6039576;23;20029;-81
2021/05/06 11:42:38;;;;;;;1.25;0.70;;;15.30;47.70;;;;;;6061692;23;20017;-81
2021/05/06 11:45:14;;;;;;;2.15;0.60;;;14.50;48.10;;;;;;6062237;23;20338;-81
2021/05/06 11:47:43;;;;;;;3.30;0.90;;;14.40;48.30;;;;;;6063016;23;20022;-81
2021/05/06 11:50:19;;;;;;;3.65;0.80;;;13.50;50.30;;;;;;6066736;23;20025;-81
2021/05/06 11:52:58;;;;;;;3.70;1.00;;;12.90;51.60;;;;;;6091284;23;20318;-80
2021/05/06 13:26:31;;;;;;;1.95;0.73;;;13.60;53.20;;;;;;6056953;23;20022;-96
2021/05/06 13:29:27;;;;;;;5.15;1.60;;;15.90;50.60;;;;;;6062523;23;20330;-95
2021/05/06 13:31:54;;;;;;;6.75;1.20;;;17.40;48.30;;;;;;6063105;23;20013;-95
2021/05/06 13:34:23;;;;;;;4.07;1.10;;;18.00;45.80;;;;;;6086230;23;20042;-95
2021/05/06 13:37:00;;;;;;;3.92;1.23;;;17.70;45.90;;;;;;6061764;23;20006;-96
2021/05/06 13:39:28;;;;;;;3.75;1.23;;;17.40;46.40;;;;;;6062122;23;20010;-96
2021/05/06 13:41:57;;;;;;;7.82;1.13;;;17.60;43.40;;;;;;6088607;23;20014;-94
2021/05/06 13:44:28;;;;;;;3.85;1.20;;;18.10;42.60;;;;;;6063672;23;20049;-96
2021/05/06 13:46:57;;;;;;;4.35;1.13;;;18.50;42.60;;;;;;6063461;23;20043;-95
2021/05/06 13:49:27;;;;;;;2.50;1.10;;;19.20;42.30;;;;;;6066141;23;20006;-96
2021/05/06 13:52:00;;;;;;;3.45;1.50;;;19.90;39.20;;;;;;6088412;23;20021;-95
2021/05/06 13:54:28;;;;;;;3.30;1.08;;;19.90;39.00;;;;;;6084533;23;20354;-95
2021/05/06 13:59:52;;;;;;;5.88;1.27;;;18.10;40.90;;;;;;6057119;23;20021;-94
2021/05/06 14:02:21;;;;;;;5.00;0.70;;;18.90;41.30;;;;;;6089799;23;20046;-94
2021/05/06 14:10:29;;;;;;;2.10;0.75;;;16.20;43.60;;;;;;6037012;23;20022;-96
2021/05/06 14:13:24;;;;;;;3.65;0.88;;;16.10;44.20;;;;;;6033237;23;20261;-96
2021/05/06 14:28:18;;;;;;;4.43;1.42;;;14.10;49.40;;;;;;6034827;23;20224;-93
2021/05/06 14:33:44;;;;;;;1.80;0.80;;;14.80;47.90;;;;;;6039856;23;20018;-94
2021/05/06 14:36:12;;;;;;;1.95;0.60;;;16.60;44.20;;;;;;6064602;23;20018;-96
2021/05/06 14:47:07;;;;;;;3.60;1.05;;;14.10;48.50;;;;;;6048794;23;20022;-93
2021/05/06 14:49:35;;;;;;;3.08;1.13;;;14.80;47.30;;;;;;6068140;23;20021;-95
2021/05/06 15:20:14;;;;;;;6.35;1.27;;;13.10;54.90;;;;;;6040752;23;20014;-93
2021/05/06 16:02:24;;;;;;;2.72;1.73;;;12.10;62.30;;;;;;6112725;23;20026;-96
2021/05/06 16:04:52;;;;;;;5.38;1.80;;;12.10;62.50;;;;;;6091351;23;20018;-95
2021/05/06 16:07:20;;;;;;;3.95;1.50;;;12.20;61.30;;;;;;6090562;23;20014;-93
2021/05/06 16:12:55;;;;;;;4.80;1.50;;;12.30;62.00;;;;;;6045029;23;20010;-96
2021/05/06 16:15:34;;;;;;;6.70;1.55;;;12.30;62.50;;;;;;6089077;23;20021;-96
2021/05/06 16:18:06;;;;;;;2.97;1.50;;;12.30;63.30;;;;;;6040993;23;20016;-96
2021/05/06 16:20:41;;;;;;;3.75;1.33;;;12.40;62.80;;;;;;6067890;23;20053;-91
2021/05/06 16:23:09;;;;;;;3.53;1.40;;;12.50;62.70;;;;;;6068938;23;20018;-96
2021/05/06 16:25:39;;;;;;;5.63;1.40;;;12.40;63.70;;;;;;6096668;23;20010;-96
2021/05/06 16:28:12;;;;;;;3.78;1.52;;;12.40;64.80;;;;;;6074652;23;20002;-96
2021/05/06 16:30:49;;;;;;;6.40;1.67;;;12.50;65.80;;;;;;6101088;23;20018;-96
2021/05/06 16:33:21;;;;;;;4.15;1.38;;;12.50;66.50;;;;;;6100738;23;20010;-96
